Time;durP1;ratioP1;P1;durP2;ratioP2;P2;SDS_P1;SDS_P2;PMS_P1;PMS_P2;Temp;Humidity;BMP_temperature;BMP_pressure;BME280_temperature;BME280_humidity;BME280_pressure;Samples;Min_cycle;Max_cycle;Signal;HPM_P1;HPM_P2
2023/12/25 00:01:06;;;;;;;3.90;3.40;;;;;;;1.06;80.83;97153.98;104655;1271;72186;-25
2023/12/25 00:03:33;;;;;;;3.00;2.10;;;;;;;0.68;82.24;97147.77;104622;1266;73089;-25
2023/12/25 00:06:14;;;;;;;3.60;2.50;;;;;;;0.96;81.94;97148.89;104512;1263;153988;-25
2023/12/25 00:08:42;;;;;;;5.60;3.50;;;;;;;1.15;81.12;97142.92;104783;1263;61202;-25
2023/12/25 00:11:11;;;;;;;3.40;2.70;;;;;;;1.08;81.11;97133.52;104889;1266;61103;-25
2023/12/25 00:13:38;;;;;;;3.20;2.60;;;;;;;0.84;82.12;97131.12;104825;1260;72430;-25
2023/12/25 00:16:06;;;;;;;3.20;2.30;;;;;;;0.83;83.01;97125.35;104785;1260;73107;-24
2023/12/25 00:18:34;;;;;;;4.30;2.60;;;;;;;1.13;81.99;97124.92;104943;1262;72673;-24
2023/12/25 00:21:02;;;;;;;3.60;2.10;;;;;;;1.24;81.37;97109.80;105062;1260;61155;-25
2023/12/25 00:23:30;;;;;;;2.70;2.10;;;;;;;0.86;83.05;97116.29;104967;1265;61107;-24
2023/12/25 00:25:57;;;;;;;3.00;1.90;;;;;;;0.76;84.00;97112.52;104928;1265;71755;-24
2023/12/25 00:28:25;;;;;;;3.60;2.60;;;;;;;0.85;84.34;97097.56;104955;1265;74304;-24
2023/12/25 00:30:52;;;;;;;4.20;2.10;;;;;;;1.06;83.87;97096.19;104939;1260;72663;-24
2023/12/25 00:33:20;;;;;;;4.10;3.10;;;;;;;1.19;83.39;97081.42;104947;1259;61145;-25
2023/12/25 00:35:48;;;;;;;3.00;2.20;;;;;;;1.03;83.72;97081.02;104870;1267;61230;-25
2023/12/25 00:45:53;;;;;;;1.60;1.50;;;;;;;1.26;84.19;97066.34;102683;1293;600321;-26
2023/12/25 00:48:20;;;;;;;4.20;2.20;;;;;;;1.22;84.07;97049.60;104828;1267;61154;-25
2023/12/25 00:57:31;;;;;;;1.80;1.40;;;;;;;1.38;84.44;97034.68;102650;1293;599868;-22
2023/12/25 00:59:59;;;;;;;1.50;1.40;;;;;;;1.24;85.28;97028.58;104883;1266;61064;-21
2023/12/25 01:02:27;;;;;;;1.30;1.10;;;;;;;1.55;84.12;97033.55;104833;1272;61266;-21
2023/12/25 01:04:55;;;;;;;2.50;1.70;;;;;;;1.74;83.55;97020.79;105028;1268;72207;-20
2023/12/25 01:07:23;;;;;;;1.20;1.10;;;;;;;1.56;84.07;97031.25;104872;1267;74327;-22
2023/12/25 01:09:50;;;;;;;1.00;0.80;;;;;;;1.38;84.75;97036.90;104621;1268;72679;-22
2023/12/25 01:12:18;;;;;;;1.00;0.90;;;;;;;1.42;85.25;97035.96;104846;1264;154599;-22
2023/12/25 01:14:46;;;;;;;1.40;1.30;;;;;;;2.06;83.09;97039.07;105025;1263;61080;-22
2023/12/25 01:17:14;;;;;;;1.30;1.10;;;;;;;2.28;81.52;97040.80;104889;1268;71078;-23
2023/12/25 01:19:42;;;;;;;2.20;1.60;;;;;;;1.91;82.46;97030.33;105058;1264;74336;-22
2023/12/25 01:22:09;;;;;;;1.30;1.10;;;;;;;1.60;84.15;97023.31;104781;1264;71437;-22
2023/12/25 01:24:37;;;;;;;1.10;1.00;;;;;;;1.53;85.46;97011.12;105086;1266;61129;-22
2023/12/25 01:27:05;;;;;;;3.30;1.70;;;;;;;2.04;83.51;97002.24;104997;1264;61135;-22
2023/12/25 01:29:32;;;;;;;1.50;1.20;;;;;;;1.92;83.68;97002.18;105145;1264;73061;-22
2023/12/25 01:32:00;;;;;;;1.60;1.10;;;;;;;1.82;84.42;96998.83;105047;1265;72034;-22
2023/12/25 01:34:27;;;;;;;1.10;1.00;;;;;;;1.66;85.40;96999.40;105075;1269;72671;-22
2023/12/25 01:36:55;;;;;;;0.80;0.80;;;;;;;1.74;85.67;96998.08;105077;1264;61178;-22
2023/12/25 01:39:23;;;;;;;1.30;1.00;;;;;;;2.20;84.01;96987.48;105167;1265;61116;-22
2023/12/25 01:41:51;;;;;;;0.60;0.60;;;;;;;2.25;83.39;96972.02;104817;1266;71618;-22
2023/12/25 01:44:18;;;;;;;1.20;0.90;;;;;;;1.87;85.07;96956.55;104864;1265;74158;-22
2023/12/25 01:46:53;;;;;;;1.20;0.90;;;;;;;1.63;86.83;96951.01;104876;1266;71460;-22
2023/12/25 01:56:59;;;;;;;0.80;0.80;;;;;;;1.92;86.04;96902.78;102664;1293;599318;-20
2023/12/25 01:59:28;;;;;;;0.90;0.70;;;;;;;2.04;86.30;96900.94;104903;1270;61129;-20
2023/12/25 02:01:57;;;;;;;1.10;0.80;;;;;;;2.44;84.72;96908.29;104899;1267;61117;-20
2023/12/25 02:04:28;;;;;;;0.90;0.80;;;;;;;2.55;84.03;96902.60;104845;1270;71338;-20
2023/12/25 02:06:56;;;;;;;0.90;0.90;;;;;;;2.50;83.92;96893.98;104885;1270;73933;-20
2023/12/25 02:17:00;;;;;;;0.80;0.70;;;;;;;2.85;83.80;96877.69;103048;1292;599983;-20
2023/12/25 02:19:38;;;;;;;1.00;0.90;;;;;;;2.51;85.35;96883.21;104700;1273;61245;-20
2023/12/25 02:22:07;;;;;;;1.70;1.30;;;;;;;2.29;87.01;96880.10;104833;1266;61136;-22
2023/12/25 02:24:43;;;;;;;1.60;1.20;;;;;;;2.52;87.03;96873.73;104891;1267;70952;-22
2023/12/25 02:27:11;;;;;;;1.70;1.30;;;;;;;2.87;85.23;96864.33;104680;1267;74267;-22
2023/12/25 02:29:38;;;;;;;1.20;0.90;;;;;;;2.86;84.93;96863.88;105083;1262;165051;-22
2023/12/25 02:32:06;;;;;;;1.60;1.40;;;;;;;2.68;85.80;96848.09;105333;1258;61100;-22
2023/12/25 02:34:34;;;;;;;1.10;1.00;;;;;;;2.53;87.50;96846.91;105338;1263;61137;-22
2023/12/25 02:37:01;;;;;;;1.00;0.80;;;;;;;3.10;85.25;96843.88;105559;1263;70881;-22
2023/12/25 02:39:29;;;;;;;2.00;1.40;;;;;;;3.24;84.13;96840.05;105287;1257;74309;-22
2023/12/25 02:41:57;;;;;;;1.30;1.10;;;;;;;3.00;85.59;96840.80;109092;1258;71467;-22
2023/12/25 02:44:24;;;;;;;0.80;0.80;;;;;;;2.91;86.00;96836.52;109103;1257;59314;-22
2023/12/25 02:46:52;;;;;;;1.40;1.00;;;;;;;3.09;86.16;96833.85;109116;1257;60096;-23
2023/12/25 02:49:20;;;;;;;1.70;1.50;;;;;;;3.26;85.59;96832.04;109107;1259;73050;-23
2023/12/25 02:51:48;;;;;;;1.80;1.20;;;;;;;3.40;84.78;96829.48;109112;1257;74744;-23
2023/12/25 02:54:15;;;;;;;2.50;1.80;;;;;;;3.14;86.16;96825.15;109102;1257;72764;-22
2023/12/25 02:56:43;;;;;;;2.70;1.50;;;;;;;3.06;86.35;96817.48;109016;1257;59598;-22
2023/12/25 02:59:12;;;;;;;1.70;1.00;;;;;;;3.43;85.17;96822.18;109116;1257;59991;-23
2023/12/25 03:01:39;;;;;;;1.40;1.20;;;;;;;3.76;84.09;96811.88;109100;1257;71760;-22
2023/12/25 03:04:06;;;;;;;2.40;1.10;;;;;;;3.67;84.52;96813.02;109123;1257;73017;-23
2023/12/25 03:06:34;;;;;;;3.00;1.50;;;;;;;3.59;84.75;96820.39;109104;1257;71447;-22
2023/12/25 03:09:02;;;;;;;1.70;1.20;;;;;;;3.31;86.08;96816.16;109083;1257;58855;-22
2023/12/25 03:11:30;;;;;;;1.60;1.10;;;;;;;3.63;86.05;96805.65;109135;1257;58855;-22
2023/12/25 03:13:57;;;;;;;2.30;1.60;;;;;;;4.00;84.14;96804.81;109017;1257;71759;-23
2023/12/25 03:16:25;;;;;;;2.90;1.60;;;;;;;3.90;84.19;96798.45;109087;1257;73019;-22
2023/12/25 03:18:52;;;;;;;2.40;1.70;;;;;;;3.89;83.94;96798.01;109107;1257;72652;-22
2023/12/25 03:21:21;;;;;;;1.20;0.80;;;;;;;3.64;85.68;96792.73;109064;1258;59612;-22
2023/12/25 03:23:48;;;;;;;2.20;1.40;;;;;;;4.08;84.31;96781.40;109114;1257;58845;-22
2023/12/25 03:26:17;;;;;;;3.80;2.00;;;;;;;4.21;83.21;96782.50;109024;1257;72034;-23
2023/12/25 03:28:45;;;;;;;3.30;1.80;;;;;;;4.02;84.02;96784.21;109020;1257;74321;-22
2023/12/25 03:31:12;;;;;;;1.90;1.20;;;;;;;3.90;84.45;96782.63;109094;1257;72686;-22
2023/12/25 03:33:40;;;;;;;1.90;1.40;;;;;;;3.90;85.04;96786.77;109065;1257;59222;-23
2023/12/25 03:36:08;;;;;;;2.60;1.40;;;;;;;4.28;83.21;96786.30;109091;1257;58740;-23
2023/12/25 03:38:35;;;;;;;4.00;1.90;;;;;;;3.92;84.73;96779.05;108993;1260;73092;-23
2023/12/25 03:41:03;;;;;;;1.40;1.10;;;;;;;3.89;84.86;96781.45;108972;1259;74313;-23
2023/12/25 03:43:31;;;;;;;3.20;1.80;;;;;;;3.78;85.77;96780.98;108954;1260;72661;-22
2023/12/25 03:45:58;;;;;;;2.30;1.70;;;;;;;4.25;84.31;96777.85;108958;1263;58838;-22
2023/12/25 03:48:26;;;;;;;2.60;1.40;;;;;;;4.41;83.03;96773.21;108962;1260;58788;-20
2023/12/25 03:50:54;;;;;;;3.00;1.40;;;;;;;4.26;83.84;96769.77;108928;1260;73003;-20
2023/12/25 03:53:22;;;;;;;3.20;1.80;;;;;;;4.21;84.25;96775.56;108981;1260;74279;-20
2023/12/25 03:55:49;;;;;;;1.60;1.20;;;;;;;4.08;84.64;96770.55;108952;1259;71786;-20
2023/12/25 03:58:17;;;;;;;3.20;1.30;;;;;;;4.33;84.98;96777.59;108919;1260;58844;-20
2023/12/25 04:00:44;;;;;;;1.90;1.40;;;;;;;4.71;83.36;96775.87;108989;1259;60051;-20
2023/12/25 04:03:12;;;;;;;1.20;0.90;;;;;;;4.75;83.10;96761.33;108972;1260;71221;-20
2023/12/25 04:05:39;;;;;;;2.30;1.50;;;;;;;4.67;83.63;96764.70;108983;1259;73031;-20
2023/12/25 04:08:07;;;;;;;1.30;1.20;;;;;;;4.48;84.40;96762.33;108906;1260;71435;-20
2023/12/25 04:10:35;;;;;;;2.00;0.90;;;;;;;4.69;84.56;96763.14;108958;1259;59721;-20
2023/12/25 04:13:03;;;;;;;1.30;0.90;;;;;;;4.96;83.74;96751.82;108963;1259;58772;-20
2023/12/25 04:15:30;;;;;;;2.10;1.10;;;;;;;4.85;84.53;96761.81;108962;1260;73031;-19
2023/12/25 04:17:57;;;;;;;1.50;0.90;;;;;;;4.59;85.70;96760.59;108963;1259;73026;-20
2023/12/25 04:20:25;;;;;;;1.00;0.70;;;;;;;4.74;85.25;96752.70;108923;1259;72719;-20
2023/12/25 04:22:53;;;;;;;1.40;0.90;;;;;;;4.89;85.03;96746.09;108927;1259;60868;-20
2023/12/25 04:25:21;;;;;;;1.40;1.00;;;;;;;5.28;83.41;96741.29;109026;1259;58799;-20
2023/12/25 04:27:50;;;;;;;4.10;0.90;;;;;;;5.44;82.55;96744.81;108998;1259;73137;-20
2023/12/25 04:30:18;;;;;;;0.90;0.80;;;;;;;5.28;82.87;96750.84;109002;1259;74287;-20
2023/12/25 04:32:46;;;;;;;1.40;1.00;;;;;;;5.00;83.99;96757.83;108921;1260;72694;-19
2023/12/25 04:35:14;;;;;;;0.90;0.80;;;;;;;5.11;84.05;96755.13;108970;1259;60052;-20
2023/12/25 04:37:41;;;;;;;1.20;0.90;;;;;;;5.43;82.80;96759.38;108999;1260;60016;-20
2023/12/25 04:40:09;;;;;;;1.30;1.10;;;;;;;5.45;82.10;96756.40;108968;1260;71743;-20
2023/12/25 04:42:37;;;;;;;1.20;0.90;;;;;;;5.28;82.95;96753.96;108886;1260;74434;-20
2023/12/25 04:45:06;;;;;;;1.10;0.80;;;;;;;5.04;84.06;96752.31;108928;1260;72666;-20
2023/12/25 04:47:33;;;;;;;0.70;0.70;;;;;;;5.31;83.73;96745.63;108867;1260;60617;-20
2023/12/25 04:50:01;;;;;;;1.90;1.00;;;;;;;5.72;82.08;96745.42;108973;1260;60044;-20
2023/12/25 04:52:29;;;;;;;0.90;0.70;;;;;;;5.63;81.71;96738.55;109372;1254;73056;-20
2023/12/25 04:54:56;;;;;;;1.80;1.10;;;;;;;5.39;82.75;96749.64;109187;1254;73881;-20
2023/12/25 04:57:24;;;;;;;1.20;0.80;;;;;;;5.10;83.75;96753.77;109259;1254;72626;-20
2023/12/25 04:59:51;;;;;;;1.20;0.80;;;;;;;5.21;83.92;96750.51;109237;1255;59578;-20
2023/12/25 05:02:19;;;;;;;0.60;0.60;;;;;;;5.63;82.59;96745.48;109297;1254;60011;-20
2023/12/25 05:04:46;;;;;;;0.60;0.60;;;;;;;5.64;82.00;96748.60;109287;1254;73122;-20
2023/12/25 05:07:14;;;;;;;3.60;1.00;;;;;;;5.57;82.26;96745.13;109314;1254;73038;-20
2023/12/25 05:09:41;;;;;;;1.40;0.90;;;;;;;5.12;84.00;96742.27;109324;1254;71395;-20
2023/12/25 05:12:09;;;;;;;1.10;1.00;;;;;;;5.16;84.37;96748.92;109383;1254;61316;-20
2023/12/25 05:14:36;;;;;;;0.80;0.80;;;;;;;5.53;83.21;96747.23;109356;1254;58884;-21
2023/12/25 05:17:04;;;;;;;1.10;0.80;;;;;;;5.75;82.28;96748.26;109141;1254;71783;-20
2023/12/25 05:19:31;;;;;;;1.00;0.80;;;;;;;5.69;82.34;96738.85;109270;1254;73123;-20
2023/12/25 05:21:59;;;;;;;1.40;0.90;;;;;;;5.43;83.26;96740.43;109275;1254;72631;-20
2023/12/25 05:24:26;;;;;;;0.70;0.70;;;;;;;5.32;83.82;96738.77;109357;1254;58895;-20
2023/12/25 05:26:54;;;;;;;1.20;1.10;;;;;;;5.53;83.53;96740.70;109344;1254;59026;-20
2023/12/25 05:29:22;;;;;;;1.00;0.80;;;;;;;5.82;82.82;96743.58;109389;1254;73021;-20
2023/12/25 05:31:49;;;;;;;2.00;1.10;;;;;;;5.97;82.04;96736.45;109340;1254;73064;-20
2023/12/25 05:34:16;;;;;;;1.20;0.70;;;;;;;5.74;82.65;96734.78;109295;1254;70376;-20
2023/12/25 05:36:44;;;;;;;1.10;0.90;;;;;;;5.54;83.97;96737.88;109288;1254;60096;-19
2023/12/25 05:39:11;;;;;;;1.40;0.70;;;;;;;5.65;84.18;96734.08;109294;1254;60079;-20
2023/12/25 05:41:41;;;;;;;1.20;0.80;;;;;;;6.02;82.83;96730.06;109278;1255;71852;-20
2023/12/25 05:44:09;;;;;;;0.80;0.60;;;;;;;6.06;82.33;96735.25;109266;1254;73331;-19
2023/12/25 05:46:36;;;;;;;0.90;0.70;;;;;;;5.95;82.92;96735.96;109132;1257;72704;-20
2023/12/25 05:49:05;;;;;;;1.60;0.90;;;;;;;5.70;84.16;96739.56;109282;1255;60026;-19
2023/12/25 05:51:33;;;;;;;1.50;0.80;;;;;;;5.69;84.79;96733.49;109382;1255;60010;-19
2023/12/25 05:54:00;;;;;;;1.30;0.80;;;;;;;6.19;83.43;96734.17;109266;1255;71781;-19
2023/12/25 05:56:28;;;;;;;0.80;0.50;;;;;;;6.22;82.88;96713.63;109227;1255;74311;-20
2023/12/25 05:58:55;;;;;;;0.70;0.60;;;;;;;6.18;83.00;96719.91;109350;1255;71463;-19
2023/12/25 06:01:23;;;;;;;1.00;0.80;;;;;;;5.98;83.98;96740.14;109370;1256;58824;-20
2023/12/25 06:03:50;;;;;;;0.80;0.70;;;;;;;5.85;85.02;96736.08;109154;1255;60070;-19
2023/12/25 06:06:18;;;;;;;1.40;0.90;;;;;;;6.30;83.67;96738.48;109291;1256;72984;-19
2023/12/25 06:08:46;;;;;;;1.30;0.60;;;;;;;6.46;82.60;96751.38;109359;1255;74424;-20
2023/12/25 06:11:14;;;;;;;0.80;0.70;;;;;;;6.27;83.58;96740.25;109179;1255;74738;-19
2023/12/25 06:13:41;;;;;;;1.20;1.00;;;;;;;6.21;83.72;96743.73;109204;1256;58866;-19
2023/12/25 06:16:09;;;;;;;1.00;0.70;;;;;;;6.22;84.37;96740.71;109212;1256;58927;-19
2023/12/25 06:18:36;;;;;;;1.20;0.90;;;;;;;6.58;82.99;96739.34;109150;1256;73010;-19
2023/12/25 06:21:04;;;;;;;1.10;0.90;;;;;;;6.67;82.28;96745.52;109206;1255;74295;-19
2023/12/25 06:23:31;;;;;;;1.20;1.00;;;;;;;6.45;83.19;96742.23;109299;1254;72669;-20
2023/12/25 06:25:59;;;;;;;0.80;0.70;;;;;;;6.13;85.34;96751.13;109147;1256;59136;-19
2023/12/25 06:28:26;;;;;;;1.50;0.60;;;;;;;6.33;85.36;96744.25;109362;1256;60018;-20
2023/12/25 06:30:54;;;;;;;0.90;0.80;;;;;;;6.71;84.01;96745.06;109211;1255;73975;-20
2023/12/25 06:33:21;;;;;;;0.80;0.60;;;;;;;6.79;83.05;96745.73;109179;1255;73320;-20
2023/12/25 06:35:49;;;;;;;1.70;0.80;;;;;;;6.67;84.09;96753.96;109241;1255;72696;-20
2023/12/25 06:38:16;;;;;;;0.80;0.60;;;;;;;6.54;84.84;96757.83;109201;1254;59332;-20
2023/12/25 06:40:44;;;;;;;1.10;1.00;;;;;;;6.76;84.57;96747.16;109293;1255;60017;-20
2023/12/25 06:43:11;;;;;;;1.00;0.80;;;;;;;6.99;83.45;96749.73;109273;1256;73844;-20
2023/12/25 06:45:39;;;;;;;1.40;0.80;;;;;;;7.02;83.13;96749.02;109149;1256;74274;-20
2023/12/25 06:48:06;;;;;;;0.90;0.70;;;;;;;6.80;84.26;96752.52;109096;1259;72704;-20
2023/12/25 06:50:35;;;;;;;0.70;0.70;;;;;;;6.65;85.42;96757.44;109179;1256;60436;-21
2023/12/25 06:53:02;;;;;;;1.00;0.60;;;;;;;6.93;84.66;96754.21;109134;1255;59984;-21
2023/12/25 06:55:30;;;;;;;1.20;1.10;;;;;;;7.16;83.70;96748.95;109300;1255;73933;-21
2023/12/25 06:57:57;;;;;;;0.90;0.70;;;;;;;7.17;83.73;96767.00;109165;1256;74289;-21
2023/12/25 07:00:25;;;;;;;1.60;0.80;;;;;;;7.12;83.93;96759.52;109295;1255;71375;-21
2023/12/25 07:02:52;;;;;;;0.80;0.60;;;;;;;7.03;84.49;96769.66;109145;1255;61712;-21
2023/12/25 07:05:20;;;;;;;1.50;0.90;;;;;;;7.38;83.19;96777.77;109279;1255;60137;-21
2023/12/25 07:07:47;;;;;;;1.50;1.00;;;;;;;7.48;82.56;96766.21;109139;1256;73844;-21
2023/12/25 07:10:15;;;;;;;1.10;0.70;;;;;;;7.36;83.01;96762.61;109279;1255;74287;-21
2023/12/25 07:12:42;;;;;;;1.20;0.70;;;;;;;7.10;84.17;96756.11;109297;1256;70485;-21
2023/12/25 07:15:09;;;;;;;1.40;0.90;;;;;;;7.22;84.55;96765.97;109187;1257;60086;-21
2023/12/25 07:17:37;;;;;;;1.30;0.70;;;;;;;7.64;82.59;96769.84;109319;1256;60212;-21
2023/12/25 07:20:05;;;;;;;0.80;0.60;;;;;;;7.67;81.86;96774.63;109280;1256;72616;-22
2023/12/25 07:22:33;;;;;;;1.10;0.80;;;;;;;7.50;82.52;96781.73;109036;1256;74406;-22
2023/12/25 07:25:05;;;;;;;0.80;0.70;;;;;;;7.40;83.01;96787.77;109133;1257;72685;-22
2023/12/25 07:27:34;;;;;;;0.80;0.60;;;;;;;7.36;83.75;96778.70;109175;1257;60024;-22
2023/12/25 07:30:02;;;;;;;1.70;0.80;;;;;;;7.77;82.02;96766.95;109293;1255;58967;-22
2023/12/25 07:32:30;;;;;;;1.60;1.00;;;;;;;7.93;81.07;96746.46;109285;1257;73840;-22
2023/12/25 07:34:58;;;;;;;0.70;0.60;;;;;;;7.76;81.58;96737.36;109320;1256;74285;-22
2023/12/25 07:37:25;;;;;;;1.00;0.80;;;;;;;7.57;82.14;96766.48;109251;1255;72664;-22
2023/12/25 07:39:53;;;;;;;1.00;0.60;;;;;;;7.59;82.69;96777.09;109112;1256;59701;-22
2023/12/25 07:42:20;;;;;;;1.30;0.70;;;;;;;7.95;81.20;96771.61;109162;1257;59067;-22
2023/12/25 07:44:48;;;;;;;1.00;0.70;;;;;;;7.93;80.67;96779.89;109112;1256;73846;-22
2023/12/25 07:47:15;;;;;;;0.60;0.60;;;;;;;7.70;81.33;96776.64;109149;1256;73072;-22
2023/12/25 07:49:43;;;;;;;1.20;0.80;;;;;;;7.48;82.64;96799.72;109149;1256;72705;-22
2023/12/25 07:52:10;;;;;;;1.90;0.90;;;;;;;7.44;83.28;96800.80;109094;1256;61665;-22
2023/12/25 07:54:38;;;;;;;0.60;0.60;;;;;;;7.91;82.00;96795.54;109228;1256;59180;-22
2023/12/25 07:57:05;;;;;;;0.60;0.50;;;;;;;8.00;81.11;96803.40;109117;1256;73821;-23
2023/12/25 07:59:33;;;;;;;1.50;0.80;;;;;;;7.87;81.72;96817.19;109148;1256;74509;-22
2023/12/25 08:02:00;;;;;;;1.50;1.00;;;;;;;7.69;82.77;96826.41;109103;1256;72729;-22
2023/12/25 08:04:28;;;;;;;1.30;0.70;;;;;;;7.63;83.54;96826.27;109203;1256;60663;-22
2023/12/25 08:06:55;;;;;;;3.10;1.00;;;;;;;8.06;81.95;96833.14;109244;1256;59980;-23
2023/12/25 08:09:23;;;;;;;0.80;0.70;;;;;;;8.15;81.20;96833.59;109132;1256;73870;-22
2023/12/25 08:11:51;;;;;;;2.20;1.10;;;;;;;8.03;81.99;96847.17;109224;1256;73181;-23
2023/12/25 08:14:18;;;;;;;2.20;0.60;;;;;;;7.76;83.39;96845.20;109200;1257;72676;-22
2023/12/25 08:16:46;;;;;;;0.70;0.60;;;;;;;7.76;83.79;96852.74;109192;1256;60389;-23
2023/12/25 08:19:13;;;;;;;0.90;0.70;;;;;;;8.03;83.09;96866.19;109220;1256;59992;-23
2023/12/25 08:21:41;;;;;;;1.20;0.60;;;;;;;8.18;82.32;96862.65;109130;1256;73839;-23
2023/12/25 08:24:08;;;;;;;1.20;0.80;;;;;;;8.15;82.52;96873.73;109138;1256;74299;-23
2023/12/25 08:26:36;;;;;;;1.00;0.70;;;;;;;8.06;82.88;96873.33;109113;1256;72678;-23
2023/12/25 08:29:04;;;;;;;0.50;0.50;;;;;;;8.13;83.44;96870.30;109104;1256;59443;-23
2023/12/25 08:31:32;;;;;;;1.20;0.70;;;;;;;8.48;82.00;96865.60;109225;1256;59809;-23
2023/12/25 08:34:00;;;;;;;1.50;1.30;;;;;;;8.54;81.44;96873.64;109216;1256;73817;-24
2023/12/25 08:36:28;;;;;;;1.10;0.70;;;;;;;8.44;81.93;96873.23;109226;1256;73068;-24
2023/12/25 08:38:56;;;;;;;0.90;0.50;;;;;;;8.32;82.69;96875.70;109087;1256;72659;-24
2023/12/25 08:41:23;;;;;;;2.20;0.60;;;;;;;8.44;82.45;96864.60;109100;1257;58895;-24
2023/12/25 08:43:51;;;;;;;0.70;0.60;;;;;;;8.85;81.10;96877.67;109075;1257;60015;-24
2023/12/25 08:46:18;;;;;;;0.70;0.70;;;;;;;8.82;80.64;96867.31;109110;1256;73845;-24
2023/12/25 08:48:47;;;;;;;0.80;0.50;;;;;;;8.73;81.19;96869.84;109136;1257;74361;-24
2023/12/25 08:51:15;;;;;;;0.40;0.40;;;;;;;8.57;81.73;96851.83;109095;1257;73101;-24
2023/12/25 08:53:44;;;;;;;0.80;0.60;;;;;;;8.71;81.43;96843.77;109165;1257;60961;-24
2023/12/25 08:56:21;;;;;;;0.60;0.50;;;;;;;8.97;80.55;96859.46;109125;1257;60908;-25
2023/12/25 08:58:49;;;;;;;0.90;0.50;;;;;;;9.16;79.75;96858.21;109060;1256;73034;-26
2023/12/25 09:01:17;;;;;;;0.80;0.70;;;;;;;9.16;79.95;96852.19;109103;1257;73897;-27
2023/12/25 09:03:44;;;;;;;0.40;0.40;;;;;;;9.17;80.28;96868.21;109151;1257;71509;-25
2023/12/25 09:06:13;;;;;;;0.90;0.60;;;;;;;9.24;80.37;96865.63;109059;1257;62241;-25
2023/12/25 09:08:40;;;;;;;0.90;0.50;;;;;;;9.58;78.47;96867.34;109089;1257;58823;-24
2023/12/25 09:11:09;;;;;;;0.80;0.50;;;;;;;9.62;77.98;96860.27;109045;1256;73181;-25
2023/12/25 09:13:37;;;;;;;1.30;0.60;;;;;;;9.52;77.96;96851.84;108954;1257;73346;-25
2023/12/25 09:16:04;;;;;;;0.60;0.50;;;;;;;9.33;78.42;96867.64;109093;1257;72686;-26
2023/12/25 09:18:32;;;;;;;0.60;0.50;;;;;;;9.26;79.52;96870.02;109034;1256;61104;-27
2023/12/25 09:21:00;;;;;;;1.00;0.60;;;;;;;9.42;78.84;96857.28;109129;1257;60078;-27
2023/12/25 09:23:27;;;;;;;0.80;0.60;;;;;;;9.68;78.17;96878.11;109113;1257;71928;-25
2023/12/25 09:26:00;;;;;;;1.00;0.60;;;;;;;9.79;77.86;96890.22;109199;1257;74129;-25
2023/12/25 09:28:27;;;;;;;0.80;0.60;;;;;;;9.54;78.00;96869.50;109091;1257;71685;-25
2023/12/25 09:30:56;;;;;;;1.00;0.60;;;;;;;9.24;78.80;96853.34;109093;1257;58834;-25
2023/12/25 09:33:24;;;;;;;1.60;0.50;;;;;;;9.40;78.38;96851.45;109199;1257;58752;-24
2023/12/25 09:35:52;;;;;;;1.00;0.70;;;;;;;9.66;77.19;96856.05;109187;1257;76093;-24
2023/12/25 09:38:20;;;;;;;1.80;0.70;;;;;;;9.63;76.82;96862.10;109111;1256;74321;-25
2023/12/25 09:40:49;;;;;;;0.70;0.60;;;;;;;9.55;77.49;96878.42;109055;1257;72675;-25
2023/12/25 09:43:18;;;;;;;0.60;0.50;;;;;;;9.36;78.22;96862.95;108997;1260;60077;-26
2023/12/25 09:45:47;;;;;;;0.70;0.60;;;;;;;9.36;77.18;96835.29;109065;1257;58949;-23
2023/12/25 09:48:19;;;;;;;1.90;0.80;;;;;;;9.59;76.44;96862.29;109030;1256;75343;-23
2023/12/25 09:50:49;;;;;;;0.80;0.60;;;;;;;9.57;76.43;96875.01;109040;1256;73564;-23
2023/12/25 09:53:20;;;;;;;1.10;0.60;;;;;;;9.48;76.23;96860.77;109029;1257;72939;-23
2023/12/25 09:55:53;;;;;;;;;;;;;;;9.28;76.77;96846.66;109043;1257;58773;-24
2023/12/25 09:58:23;;;;;;;0.60;0.40;;;;;;;9.43;76.44;96869.80;109112;1257;59571;-24
2023/12/25 10:00:54;;;;;;;0.90;0.70;;;;;;;9.74;75.37;96868.13;109040;1257;73776;-25
2023/12/25 10:03:25;;;;;;;1.80;0.70;;;;;;;9.59;75.50;96860.84;109007;1257;73305;-25
2023/12/25 10:05:55;;;;;;;0.80;0.60;;;;;;;9.59;75.19;96854.02;109049;1257;74854;-25
2023/12/25 10:08:27;;;;;;;1.30;0.60;;;;;;;9.49;75.93;96866.02;109014;1257;59352;-28
2023/12/25 10:10:57;;;;;;;0.60;0.50;;;;;;;9.51;75.12;96845.62;109060;1257;60009;-25
2023/12/25 10:13:26;;;;;;;1.50;0.60;;;;;;;9.63;75.04;96860.35;108986;1257;73888;-25
2023/12/25 10:15:55;;;;;;;0.80;0.60;;;;;;;9.76;73.51;96851.93;109045;1257;74368;-25
2023/12/25 10:18:27;;;;;;;1.10;0.50;;;;;;;9.85;72.14;96839.01;109032;1257;70503;-25
2023/12/25 10:20:58;;;;;;;1.20;0.70;;;;;;;9.80;72.38;96859.48;109090;1257;60086;-26
2023/12/25 10:23:29;;;;;;;0.50;0.50;;;;;;;9.72;72.01;96864.90;109072;1257;59193;-25
2023/12/25 10:26:00;;;;;;;0.80;0.50;;;;;;;9.55;71.19;96854.61;108971;1257;75413;-28
2023/12/25 10:28:32;;;;;;;1.20;0.50;;;;;;;9.58;71.12;96859.51;109050;1257;73182;-28
2023/12/25 10:31:08;;;;;;;0.80;0.50;;;;;;;9.66;71.33;96853.05;108997;1257;72643;-27
2023/12/25 10:33:39;;;;;;;0.70;0.50;;;;;;;9.73;71.51;96875.90;109074;1257;60042;-28
2023/12/25 10:36:09;;;;;;;0.50;0.50;;;;;;;9.51;71.96;96846.09;109076;1257;58744;-28
2023/12/25 10:38:42;;;;;;;1.00;0.50;;;;;;;9.31;72.71;96862.10;109006;1257;73001;-28
2023/12/25 10:48:48;;;;;;;1.30;0.50;;;;;;;10.08;70.40;96887.73;102736;1293;599579;-27
2023/12/25 10:51:36;;;;;;;0.60;0.50;;;;;;;9.87;70.95;96872.39;105075;1269;61142;-27
2023/12/25 10:54:04;;;;;;;0.90;0.60;;;;;;;10.09;70.64;96873.60;104884;1267;61165;-27
2023/12/25 10:56:34;;;;;;;1.00;0.50;;;;;;;10.00;71.07;96875.81;104879;1267;73108;-27
2023/12/25 10:59:06;;;;;;;1.20;0.50;;;;;;;9.91;70.75;96855.17;104906;1271;76218;-27
2023/12/25 11:01:34;;;;;;;0.50;0.40;;;;;;;9.91;70.59;96853.00;104495;1272;407884;-27
2023/12/25 11:04:02;;;;;;;4.10;0.80;;;;;;;9.88;70.61;96861.25;105108;1263;61109;-27
2023/12/25 11:06:30;;;;;;;4.60;0.70;;;;;;;9.73;71.04;96858.56;105219;1268;61197;-27
2023/12/25 11:08:58;;;;;;;0.60;0.60;;;;;;;9.71;71.15;96843.02;104916;1264;70327;-28
2023/12/25 11:11:26;;;;;;;0.70;0.40;;;;;;;10.05;69.47;96854.70;105084;1264;74383;-27
2023/12/25 11:13:54;;;;;;;0.60;0.50;;;;;;;10.32;68.17;96854.37;104873;1269;72651;-27
2023/12/25 11:16:21;;;;;;;1.10;0.50;;;;;;;10.12;68.32;96859.30;104858;1270;61063;-27
2023/12/25 11:18:50;;;;;;;0.40;0.40;;;;;;;10.06;68.44;96866.91;104883;1264;61089;-27
2023/12/25 11:21:19;;;;;;;0.80;0.40;;;;;;;10.03;68.50;96876.34;105181;1269;71819;-27
2023/12/25 11:23:48;;;;;;;1.10;0.50;;;;;;;9.72;69.79;96883.27;104875;1270;74391;-27
2023/12/25 11:26:18;;;;;;;0.60;0.50;;;;;;;9.58;70.51;96875.61;105013;1266;74503;-27
2023/12/25 11:28:55;;;;;;;0.90;0.50;;;;;;;9.57;70.79;96892.90;105198;1267;61170;-25
2023/12/25 11:31:23;;;;;;;0.60;0.30;;;;;;;9.65;71.07;96885.54;104945;1279;61217;-25
2023/12/25 11:33:51;;;;;;;0.30;0.30;;;;;;;9.90;69.87;96885.38;104942;1263;75059;-25
2023/12/25 11:36:19;;;;;;;0.80;0.60;;;;;;;10.03;68.99;96899.09;105198;1269;74366;-27
2023/12/25 11:38:54;;;;;;;1.20;0.60;;;;;;;9.89;69.71;96905.56;104860;1270;72675;-27
2023/12/25 11:41:22;;;;;;;0.60;0.60;;;;;;;9.73;70.32;96888.31;104845;1270;61265;-27
2023/12/25 11:43:50;;;;;;;1.00;0.70;;;;;;;9.64;70.93;96898.16;104949;1263;61172;-27
2023/12/25 11:46:20;;;;;;;0.80;0.50;;;;;;;9.55;71.19;96887.02;105122;1263;75307;-27
2023/12/25 11:48:50;;;;;;;1.40;0.50;;;;;;;9.88;70.06;96874.92;104947;1263;74343;-27
2023/12/25 11:51:29;;;;;;;0.60;0.40;;;;;;;10.10;68.75;96878.07;104888;1269;72658;-26
2023/12/25 12:01:33;;;;;;;1.00;0.50;;;;;;;9.72;70.49;96896.09;102701;1292;599325;-26
2023/12/25 12:04:02;;;;;;;1.20;0.50;;;;;;;9.56;70.64;96878.22;104917;1267;61084;-25
2023/12/25 12:14:06;;;;;;;1.50;0.70;;;;;;;9.92;69.20;96888.84;102646;1292;600636;-27
2023/12/25 12:16:41;;;;;;;1.20;0.50;;;;;;;9.73;70.20;96892.63;104822;1267;61090;-26
2023/12/25 12:19:12;;;;;;;0.90;0.70;;;;;;;9.63;70.94;96882.35;104880;1267;61133;-27
2023/12/25 12:21:41;;;;;;;0.50;0.30;;;;;;;9.58;71.10;96883.96;104838;1272;71023;-27
2023/12/25 12:24:26;;;;;;;6.10;0.70;;;;;;;9.88;69.65;96876.41;108600;1266;73189;-27
2023/12/25 12:26:53;;;;;;;2.00;0.80;;;;;;;9.96;68.41;96872.59;108473;1264;149317;-27
2023/12/25 12:29:21;;;;;;;0.40;0.40;;;;;;;9.92;69.22;96879.05;108706;1263;60116;-27
2023/12/25 12:31:49;;;;;;;1.40;0.60;;;;;;;9.73;69.69;96878.51;108710;1264;58957;-25